sensor_id;sensor_type;location;lat;lon;timestamp;P1;durP1;ratioP1;P2;durP2;ratioP2
9334;SDS011;4706;41.844;26.082;2023-03-23T00:01:19;18.23;;;16.42;;
9334;SDS011;4706;41.844;26.082;2023-03-23T00:03:47;14.55;;;13.07;;
9334;SDS011;4706;41.844;26.082;2023-03-23T00:06:14;13.90;;;12.38;;
9334;SDS011;4706;41.844;26.082;2023-03-23T00:08:42;11.68;;;10.52;;
9334;SDS011;4706;41.844;26.082;2023-03-23T00:13:43;10.57;;;9.57;;
9334;SDS011;4706;41.844;26.082;2023-03-23T00:16:11;11.82;;;10.63;;
9334;SDS011;4706;41.844;26.082;2023-03-23T00:18:49;10.55;;;9.65;;
9334;SDS011;4706;41.844;26.082;2023-03-23T00:21:22;10.70;;;9.70;;
9334;SDS011;4706;41.844;26.082;2023-03-23T00:23:59;10.73;;;9.63;;
9334;SDS011;4706;41.844;26.082;2023-03-23T00:26:32;10.75;;;9.80;;
9334;SDS011;4706;41.844;26.082;2023-03-23T00:29:03;11.13;;;10.02;;
9334;SDS011;4706;41.844;26.082;2023-03-23T00:31:29;12.48;;;11.48;;
9334;SDS011;4706;41.844;26.082;2023-03-23T00:34:00;14.30;;;12.80;;
9334;SDS011;4706;41.844;26.082;2023-03-23T00:36:27;17.15;;;15.40;;
9334;SDS011;4706;41.844;26.082;2023-03-23T00:38:54;19.23;;;17.58;;
9334;SDS011;4706;41.844;26.082;2023-03-23T00:41:23;20.45;;;18.75;;
9334;SDS011;4706;41.844;26.082;2023-03-23T00:43:52;23.83;;;21.77;;
9334;SDS011;4706;41.844;26.082;2023-03-23T00:46:21;23.70;;;21.90;;
9334;SDS011;4706;41.844;26.082;2023-03-23T00:48:47;22.10;;;20.20;;
9334;SDS011;4706;41.844;26.082;2023-03-23T00:51:15;22.98;;;20.88;;
9334;SDS011;4706;41.844;26.082;2023-03-23T00:53:42;21.73;;;20.02;;
9334;SDS011;4706;41.844;26.082;2023-03-23T00:56:08;19.10;;;17.35;;
9334;SDS011;4706;41.844;26.082;2023-03-23T00:58:34;18.60;;;16.80;;
9334;SDS011;4706;41.844;26.082;2023-03-23T01:01:00;18.45;;;16.85;;
9334;SDS011;4706;41.844;26.082;2023-03-23T01:03:25;19.02;;;17.30;;
9334;SDS011;4706;41.844;26.082;2023-03-23T01:05:53;19.10;;;17.27;;
9334;SDS011;4706;41.844;26.082;2023-03-23T01:08:20;16.10;;;14.48;;
9334;SDS011;4706;41.844;26.082;2023-03-23T01:10:47;15.27;;;13.98;;
9334;SDS011;4706;41.844;26.082;2023-03-23T01:13:13;14.10;;;12.80;;
9334;SDS011;4706;41.844;26.082;2023-03-23T01:15:39;20.38;;;18.58;;
9334;SDS011;4706;41.844;26.082;2023-03-23T01:18:06;23.15;;;21.30;;
9334;SDS011;4706;41.844;26.082;2023-03-23T01:20:31;20.52;;;18.75;;
9334;SDS011;4706;41.844;26.082;2023-03-23T01:22:58;17.23;;;15.68;;
9334;SDS011;4706;41.844;26.082;2023-03-23T01:25:29;15.82;;;14.40;;
9334;SDS011;4706;41.844;26.082;2023-03-23T01:27:56;12.80;;;11.70;;
9334;SDS011;4706;41.844;26.082;2023-03-23T01:30:23;12.27;;;11.10;;
9334;SDS011;4706;41.844;26.082;2023-03-23T01:32:50;14.90;;;13.50;;
9334;SDS011;4706;41.844;26.082;2023-03-23T01:35:16;15.60;;;14.15;;
9334;SDS011;4706;41.844;26.082;2023-03-23T01:37:42;15.52;;;14.05;;
9334;SDS011;4706;41.844;26.082;2023-03-23T01:40:08;15.27;;;13.88;;
9334;SDS011;4706;41.844;26.082;2023-03-23T01:42:35;13.05;;;11.43;;
9334;SDS011;4706;41.844;26.082;2023-03-23T01:47:46;14.35;;;12.98;;
9334;SDS011;4706;41.844;26.082;2023-03-23T01:50:15;14.55;;;12.50;;
9334;SDS011;4706;41.844;26.082;2023-03-23T01:52:41;12.30;;;11.00;;
9334;SDS011;4706;41.844;26.082;2023-03-23T01:55:06;11.73;;;10.52;;
9334;SDS011;4706;41.844;26.082;2023-03-23T01:57:33;10.45;;;9.45;;
9334;SDS011;4706;41.844;26.082;2023-03-23T02:00:01;10.65;;;9.55;;
9334;SDS011;4706;41.844;26.082;2023-03-23T02:02:35;11.05;;;9.95;;
9334;SDS011;4706;41.844;26.082;2023-03-23T02:05:04;9.63;;;8.75;;
9334;SDS011;4706;41.844;26.082;2023-03-23T02:07:36;10.73;;;9.73;;
9334;SDS011;4706;41.844;26.082;2023-03-23T02:10:02;12.27;;;11.02;;
9334;SDS011;4706;41.844;26.082;2023-03-23T02:12:28;13.07;;;10.63;;
9334;SDS011;4706;41.844;26.082;2023-03-23T02:14:53;11.45;;;10.32;;
9334;SDS011;4706;41.844;26.082;2023-03-23T02:30:43;10.65;;;9.55;;
9334;SDS011;4706;41.844;26.082;2023-03-23T02:36:05;11.80;;;10.23;;
9334;SDS011;4706;41.844;26.082;2023-03-23T02:39:08;11.02;;;9.93;;
9334;SDS011;4706;41.844;26.082;2023-03-23T02:41:42;11.75;;;10.52;;
9334;SDS011;4706;41.844;26.082;2023-03-23T02:44:10;11.77;;;10.57;;
9334;SDS011;4706;41.844;26.082;2023-03-23T02:46:39;12.23;;;10.45;;
9334;SDS011;4706;41.844;26.082;2023-03-23T02:49:06;12.13;;;10.85;;
9334;SDS011;4706;41.844;26.082;2023-03-23T02:51:34;12.88;;;11.68;;
9334;SDS011;4706;41.844;26.082;2023-03-23T02:54:02;11.30;;;10.20;;
9334;SDS011;4706;41.844;26.082;2023-03-23T02:56:29;11.98;;;10.85;;
9334;SDS011;4706;41.844;26.082;2023-03-23T02:58:58;12.25;;;10.73;;
9334;SDS011;4706;41.844;26.082;2023-03-23T03:04:12;11.65;;;10.50;;
9334;SDS011;4706;41.844;26.082;2023-03-23T03:12:16;12.10;;;11.00;;
9334;SDS011;4706;41.844;26.082;2023-03-23T03:17:52;12.35;;;11.20;;
9334;SDS011;4706;41.844;26.082;2023-03-23T03:20:45;13.82;;;12.48;;
9334;SDS011;4706;41.844;26.082;2023-03-23T03:23:15;13.45;;;12.15;;
9334;SDS011;4706;41.844;26.082;2023-03-23T03:25:41;14.48;;;13.00;;
9334;SDS011;4706;41.844;26.082;2023-03-23T03:28:17;15.88;;;14.10;;
9334;SDS011;4706;41.844;26.082;2023-03-23T03:30:47;16.83;;;14.48;;
9334;SDS011;4706;41.844;26.082;2023-03-23T03:33:19;31.88;;;22.63;;
9334;SDS011;4706;41.844;26.082;2023-03-23T03:35:45;25.02;;;19.08;;
9334;SDS011;4706;41.844;26.082;2023-03-23T03:38:12;14.05;;;12.65;;
9334;SDS011;4706;41.844;26.082;2023-03-23T03:40:38;13.77;;;12.40;;
9334;SDS011;4706;41.844;26.082;2023-03-23T03:43:04;14.63;;;13.10;;
9334;SDS011;4706;41.844;26.082;2023-03-23T03:45:34;14.68;;;13.15;;
9334;SDS011;4706;41.844;26.082;2023-03-23T03:47:59;15.93;;;14.23;;
9334;SDS011;4706;41.844;26.082;2023-03-23T03:50:26;16.90;;;15.15;;
9334;SDS011;4706;41.844;26.082;2023-03-23T03:52:52;16.70;;;15.18;;
9334;SDS011;4706;41.844;26.082;2023-03-23T03:55:18;17.70;;;16.00;;
9334;SDS011;4706;41.844;26.082;2023-03-23T03:57:44;18.80;;;16.98;;
9334;SDS011;4706;41.844;26.082;2023-03-23T04:00:10;18.27;;;16.48;;
9334;SDS011;4706;41.844;26.082;2023-03-23T04:02:46;19.33;;;17.48;;
9334;SDS011;4706;41.844;26.082;2023-03-23T04:05:15;17.85;;;16.08;;
9334;SDS011;4706;41.844;26.082;2023-03-23T04:07:42;20.73;;;18.63;;
9334;SDS011;4706;41.844;26.082;2023-03-23T04:10:09;20.65;;;18.70;;
9334;SDS011;4706;41.844;26.082;2023-03-23T04:12:36;18.85;;;16.95;;
9334;SDS011;4706;41.844;26.082;2023-03-23T04:15:02;17.55;;;15.88;;
9334;SDS011;4706;41.844;26.082;2023-03-23T04:17:29;19.13;;;17.13;;
9334;SDS011;4706;41.844;26.082;2023-03-23T04:19:54;16.48;;;14.80;;
9334;SDS011;4706;41.844;26.082;2023-03-23T04:22:25;14.63;;;13.27;;
9334;SDS011;4706;41.844;26.082;2023-03-23T04:24:58;17.02;;;14.88;;
9334;SDS011;4706;41.844;26.082;2023-03-23T04:27:27;18.15;;;16.30;;
9334;SDS011;4706;41.844;26.082;2023-03-23T04:29:55;21.83;;;19.83;;
9334;SDS011;4706;41.844;26.082;2023-03-23T04:32:24;19.92;;;18.13;;
9334;SDS011;4706;41.844;26.082;2023-03-23T04:34:57;20.63;;;18.67;;
9334;SDS011;4706;41.844;26.082;2023-03-23T04:37:25;20.00;;;18.00;;
9334;SDS011;4706;41.844;26.082;2023-03-23T04:39:56;20.15;;;18.08;;
9334;SDS011;4706;41.844;26.082;2023-03-23T04:42:29;19.95;;;18.05;;
9334;SDS011;4706;41.844;26.082;2023-03-23T04:44:56;21.20;;;19.30;;
9334;SDS011;4706;41.844;26.082;2023-03-23T04:47:24;21.83;;;19.67;;
9334;SDS011;4706;41.844;26.082;2023-03-23T04:49:54;20.65;;;18.55;;
9334;SDS011;4706;41.844;26.082;2023-03-23T04:52:27;17.60;;;16.02;;
9334;SDS011;4706;41.844;26.082;2023-03-23T04:54:54;18.48;;;16.05;;
9334;SDS011;4706;41.844;26.082;2023-03-23T04:57:21;17.33;;;15.55;;
9334;SDS011;4706;41.844;26.082;2023-03-23T04:59:47;17.02;;;15.43;;
9334;SDS011;4706;41.844;26.082;2023-03-23T05:02:13;16.98;;;15.27;;
9334;SDS011;4706;41.844;26.082;2023-03-23T05:04:40;17.27;;;15.48;;
9334;SDS011;4706;41.844;26.082;2023-03-23T05:07:06;17.13;;;15.32;;
9334;SDS011;4706;41.844;26.082;2023-03-23T05:09:33;17.25;;;15.50;;
9334;SDS011;4706;41.844;26.082;2023-03-23T05:12:03;17.58;;;15.32;;
9334;SDS011;4706;41.844;26.082;2023-03-23T05:14:29;17.45;;;15.65;;
9334;SDS011;4706;41.844;26.082;2023-03-23T05:16:55;15.70;;;14.20;;
9334;SDS011;4706;41.844;26.082;2023-03-23T05:19:21;16.92;;;15.23;;
9334;SDS011;4706;41.844;26.082;2023-03-23T05:21:46;17.15;;;15.45;;
9334;SDS011;4706;41.844;26.082;2023-03-23T05:24:12;16.95;;;15.25;;
9334;SDS011;4706;41.844;26.082;2023-03-23T05:26:37;17.02;;;15.43;;
9334;SDS011;4706;41.844;26.082;2023-03-23T05:29:03;17.75;;;15.95;;
9334;SDS011;4706;41.844;26.082;2023-03-23T05:31:28;19.15;;;17.25;;
9334;SDS011;4706;41.844;26.082;2023-03-23T05:33:54;18.85;;;16.92;;
9334;SDS011;4706;41.844;26.082;2023-03-23T05:36:19;19.70;;;17.55;;
9334;SDS011;4706;41.844;26.082;2023-03-23T05:38:45;19.92;;;17.58;;
9334;SDS011;4706;41.844;26.082;2023-03-23T05:41:13;21.23;;;18.45;;
9334;SDS011;4706;41.844;26.082;2023-03-23T05:43:39;20.92;;;18.27;;
9334;SDS011;4706;41.844;26.082;2023-03-23T05:46:05;20.75;;;17.10;;
9334;SDS011;4706;41.844;26.082;2023-03-23T05:48:32;18.30;;;16.40;;
9334;SDS011;4706;41.844;26.082;2023-03-23T05:50:58;18.88;;;15.68;;
9334;SDS011;4706;41.844;26.082;2023-03-23T05:53:24;18.00;;;16.15;;
9334;SDS011;4706;41.844;26.082;2023-03-23T05:55:49;17.02;;;15.23;;
9334;SDS011;4706;41.844;26.082;2023-03-23T05:58:15;17.48;;;15.88;;
9334;SDS011;4706;41.844;26.082;2023-03-23T06:00:41;18.33;;;15.88;;
9334;SDS011;4706;41.844;26.082;2023-03-23T06:03:06;18.23;;;16.42;;
9334;SDS011;4706;41.844;26.082;2023-03-23T06:05:32;17.88;;;16.17;;
9334;SDS011;4706;41.844;26.082;2023-03-23T06:07:58;37.25;;;32.50;;
9334;SDS011;4706;41.844;26.082;2023-03-23T06:10:24;30.60;;;27.35;;
9334;SDS011;4706;41.844;26.082;2023-03-23T06:12:50;20.35;;;18.40;;
9334;SDS011;4706;41.844;26.082;2023-03-23T06:15:16;18.58;;;16.77;;
9334;SDS011;4706;41.844;26.082;2023-03-23T06:17:42;20.52;;;18.42;;
9334;SDS011;4706;41.844;26.082;2023-03-23T06:20:08;17.83;;;15.95;;
9334;SDS011;4706;41.844;26.082;2023-03-23T06:22:35;25.27;;;22.42;;
9334;SDS011;4706;41.844;26.082;2023-03-23T06:25:03;25.10;;;21.42;;
9334;SDS011;4706;41.844;26.082;2023-03-23T06:27:32;19.17;;;17.10;;
9334;SDS011;4706;41.844;26.082;2023-03-23T06:29:58;21.90;;;19.48;;
9334;SDS011;4706;41.844;26.082;2023-03-23T06:32:24;17.75;;;15.95;;
9334;SDS011;4706;41.844;26.082;2023-03-23T06:34:53;17.63;;;15.75;;
9334;SDS011;4706;41.844;26.082;2023-03-23T06:37:19;16.48;;;14.77;;
9334;SDS011;4706;41.844;26.082;2023-03-23T06:39:45;15.55;;;13.82;;
9334;SDS011;4706;41.844;26.082;2023-03-23T06:42:11;13.18;;;11.88;;
9334;SDS011;4706;41.844;26.082;2023-03-23T06:44:37;15.23;;;13.73;;
9334;SDS011;4706;41.844;26.082;2023-03-23T06:47:03;16.05;;;14.35;;
9334;SDS011;4706;41.844;26.082;2023-03-23T06:49:29;14.50;;;12.98;;
9334;SDS011;4706;41.844;26.082;2023-03-23T06:51:54;15.48;;;13.90;;
9334;SDS011;4706;41.844;26.082;2023-03-23T06:54:25;16.85;;;15.05;;
9334;SDS011;4706;41.844;26.082;2023-03-23T06:56:51;21.80;;;17.35;;
9334;SDS011;4706;41.844;26.082;2023-03-23T06:59:16;21.25;;;17.85;;
9334;SDS011;4706;41.844;26.082;2023-03-23T07:01:42;19.95;;;17.77;;
9334;SDS011;4706;41.844;26.082;2023-03-23T07:04:07;17.25;;;15.25;;
9334;SDS011;4706;41.844;26.082;2023-03-23T07:06:33;14.93;;;13.45;;
9334;SDS011;4706;41.844;26.082;2023-03-23T07:08:58;15.52;;;14.02;;
9334;SDS011;4706;41.844;26.082;2023-03-23T07:11:24;14.35;;;12.95;;
9334;SDS011;4706;41.844;26.082;2023-03-23T07:13:50;15.25;;;13.75;;
9334;SDS011;4706;41.844;26.082;2023-03-23T07:16:16;15.13;;;13.73;;
9334;SDS011;4706;41.844;26.082;2023-03-23T07:18:43;17.17;;;15.38;;
9334;SDS011;4706;41.844;26.082;2023-03-23T07:21:08;20.05;;;16.85;;
9334;SDS011;4706;41.844;26.082;2023-03-23T07:23:34;16.20;;;14.70;;
9334;SDS011;4706;41.844;26.082;2023-03-23T07:25:59;16.85;;;15.25;;
9334;SDS011;4706;41.844;26.082;2023-03-23T07:28:25;17.35;;;15.60;;
9334;SDS011;4706;41.844;26.082;2023-03-23T07:30:51;16.15;;;14.60;;
9334;SDS011;4706;41.844;26.082;2023-03-23T07:33:17;17.52;;;15.73;;
9334;SDS011;4706;41.844;26.082;2023-03-23T07:35:43;20.02;;;18.02;;
9334;SDS011;4706;41.844;26.082;2023-03-23T07:38:09;20.98;;;18.50;;
9334;SDS011;4706;41.844;26.082;2023-03-23T07:40:34;21.08;;;18.00;;
9334;SDS011;4706;41.844;26.082;2023-03-23T07:43:02;20.88;;;18.77;;
9334;SDS011;4706;41.844;26.082;2023-03-23T07:45:29;19.48;;;17.48;;
9334;SDS011;4706;41.844;26.082;2023-03-23T07:47:56;20.48;;;18.45;;
9334;SDS011;4706;41.844;26.082;2023-03-23T07:50:21;20.92;;;18.90;;
9334;SDS011;4706;41.844;26.082;2023-03-23T07:52:49;21.63;;;19.52;;
9334;SDS011;4706;41.844;26.082;2023-03-23T07:55:17;21.67;;;19.30;;
9334;SDS011;4706;41.844;26.082;2023-03-23T07:57:44;22.08;;;19.77;;
9334;SDS011;4706;41.844;26.082;2023-03-23T08:00:10;23.33;;;20.95;;
9334;SDS011;4706;41.844;26.082;2023-03-23T08:02:38;23.08;;;20.67;;
9334;SDS011;4706;41.844;26.082;2023-03-23T08:05:04;23.35;;;21.05;;
9334;SDS011;4706;41.844;26.082;2023-03-23T08:07:30;22.52;;;20.23;;
9334;SDS011;4706;41.844;26.082;2023-03-23T08:09:55;22.00;;;19.80;;
9334;SDS011;4706;41.844;26.082;2023-03-23T08:12:21;22.17;;;19.98;;
9334;SDS011;4706;41.844;26.082;2023-03-23T08:14:46;20.00;;;18.10;;
9334;SDS011;4706;41.844;26.082;2023-03-23T08:17:13;18.17;;;16.17;;
9334;SDS011;4706;41.844;26.082;2023-03-23T08:19:39;18.23;;;16.42;;
9334;SDS011;4706;41.844;26.082;2023-03-23T08:22:05;23.35;;;20.98;;
9334;SDS011;4706;41.844;26.082;2023-03-23T08:24:31;27.23;;;24.42;;
9334;SDS011;4706;41.844;26.082;2023-03-23T08:27:00;25.35;;;22.60;;
9334;SDS011;4706;41.844;26.082;2023-03-23T08:29:26;22.48;;;20.45;;
9334;SDS011;4706;41.844;26.082;2023-03-23T08:31:52;21.33;;;19.13;;
9334;SDS011;4706;41.844;26.082;2023-03-23T08:34:18;19.25;;;17.05;;
9334;SDS011;4706;41.844;26.082;2023-03-23T08:36:45;15.18;;;13.57;;
9334;SDS011;4706;41.844;26.082;2023-03-23T08:39:11;15.13;;;13.52;;
9334;SDS011;4706;41.844;26.082;2023-03-23T08:41:39;15.70;;;14.07;;
9334;SDS011;4706;41.844;26.082;2023-03-23T08:44:05;19.50;;;15.15;;
9334;SDS011;4706;41.844;26.082;2023-03-23T08:46:34;16.95;;;12.95;;
9334;SDS011;4706;41.844;26.082;2023-03-23T08:49:00;15.02;;;13.55;;
9334;SDS011;4706;41.844;26.082;2023-03-23T08:51:25;15.48;;;13.98;;
9334;SDS011;4706;41.844;26.082;2023-03-23T08:53:51;11.73;;;10.52;;
9334;SDS011;4706;41.844;26.082;2023-03-23T08:56:17;11.73;;;10.70;;
9334;SDS011;4706;41.844;26.082;2023-03-23T08:58:43;13.13;;;11.82;;
9334;SDS011;4706;41.844;26.082;2023-03-23T09:01:08;12.95;;;10.60;;
9334;SDS011;4706;41.844;26.082;2023-03-23T09:03:37;11.30;;;10.13;;
9334;SDS011;4706;41.844;26.082;2023-03-23T09:06:04;13.68;;;12.38;;
9334;SDS011;4706;41.844;26.082;2023-03-23T09:08:32;13.50;;;12.20;;
9334;SDS011;4706;41.844;26.082;2023-03-23T09:11:05;13.15;;;11.95;;
9334;SDS011;4706;41.844;26.082;2023-03-23T09:13:32;11.85;;;10.63;;
9334;SDS011;4706;41.844;26.082;2023-03-23T09:15:59;9.50;;;8.57;;
9334;SDS011;4706;41.844;26.082;2023-03-23T09:18:25;11.73;;;10.55;;
9334;SDS011;4706;41.844;26.082;2023-03-23T09:20:51;16.35;;;10.98;;
9334;SDS011;4706;41.844;26.082;2023-03-23T09:23:18;14.10;;;10.40;;
9334;SDS011;4706;41.844;26.082;2023-03-23T09:25:43;12.93;;;10.82;;
9334;SDS011;4706;41.844;26.082;2023-03-23T09:28:09;10.77;;;9.60;;
9334;SDS011;4706;41.844;26.082;2023-03-23T09:30:35;14.30;;;13.00;;
9334;SDS011;4706;41.844;26.082;2023-03-23T09:33:05;10.57;;;9.40;;
9334;SDS011;4706;41.844;26.082;2023-03-23T09:35:33;10.32;;;8.35;;
9334;SDS011;4706;41.844;26.082;2023-03-23T09:38:00;10.30;;;7.80;;
9334;SDS011;4706;41.844;26.082;2023-03-23T09:40:37;7.50;;;6.80;;
9334;SDS011;4706;41.844;26.082;2023-03-23T09:45:49;10.52;;;9.55;;
9334;SDS011;4706;41.844;26.082;2023-03-23T09:54:00;20.20;;;9.25;;
9334;SDS011;4706;41.844;26.082;2023-03-23T09:56:30;7.28;;;6.63;;
9334;SDS011;4706;41.844;26.082;2023-03-23T10:01:26;8.88;;;8.07;;
9334;SDS011;4706;41.844;26.082;2023-03-23T10:04:07;14.05;;;8.80;;
9334;SDS011;4706;41.844;26.082;2023-03-23T10:06:48;11.43;;;8.30;;
9334;SDS011;4706;41.844;26.082;2023-03-23T10:09:16;7.03;;;6.50;;
9334;SDS011;4706;41.844;26.082;2023-03-23T10:11:47;7.28;;;6.57;;
9334;SDS011;4706;41.844;26.082;2023-03-23T10:14:32;8.52;;;7.05;;
9334;SDS011;4706;41.844;26.082;2023-03-23T10:19:57;8.25;;;7.07;;
9334;SDS011;4706;41.844;26.082;2023-03-23T10:22:36;13.73;;;6.95;;
9334;SDS011;4706;41.844;26.082;2023-03-23T10:25:15;18.88;;;8.27;;
9334;SDS011;4706;41.844;26.082;2023-03-23T10:30:29;20.70;;;7.22;;
9334;SDS011;4706;41.844;26.082;2023-03-23T10:33:01;6.45;;;5.95;;
9334;SDS011;4706;41.844;26.082;2023-03-23T10:35:42;6.47;;;5.88;;
9334;SDS011;4706;41.844;26.082;2023-03-23T10:38:20;18.13;;;12.77;;
9334;SDS011;4706;41.844;26.082;2023-03-23T10:40:56;9.20;;;8.15;;
9334;SDS011;4706;41.844;26.082;2023-03-23T10:43:33;8.45;;;7.30;;
9334;SDS011;4706;41.844;26.082;2023-03-23T10:46:05;7.72;;;7.03;;
9334;SDS011;4706;41.844;26.082;2023-03-23T10:48:56;12.52;;;7.55;;
9334;SDS011;4706;41.844;26.082;2023-03-23T10:51:28;7.13;;;6.47;;
9334;SDS011;4706;41.844;26.082;2023-03-23T10:54:06;9.65;;;8.85;;
9334;SDS011;4706;41.844;26.082;2023-03-23T10:56:37;8.30;;;7.18;;
9334;SDS011;4706;41.844;26.082;2023-03-23T11:01:56;6.30;;;5.72;;
9334;SDS011;4706;41.844;26.082;2023-03-23T11:04:25;5.97;;;5.47;;
9334;SDS011;4706;41.844;26.082;2023-03-23T11:06:52;6.55;;;5.25;;
9334;SDS011;4706;41.844;26.082;2023-03-23T11:09:32;8.25;;;4.97;;
9334;SDS011;4706;41.844;26.082;2023-03-23T11:12:00;6.78;;;4.80;;
9334;SDS011;4706;41.844;26.082;2023-03-23T11:14:28;5.05;;;4.65;;
9334;SDS011;4706;41.844;26.082;2023-03-23T11:16:59;5.60;;;4.93;;
9334;SDS011;4706;41.844;26.082;2023-03-23T11:19:28;8.55;;;4.95;;
9334;SDS011;4706;41.844;26.082;2023-03-23T11:24:31;6.88;;;6.15;;
9334;SDS011;4706;41.844;26.082;2023-03-23T11:26:59;7.15;;;6.60;;
9334;SDS011;4706;41.844;26.082;2023-03-23T11:29:26;6.65;;;6.03;;
9334;SDS011;4706;41.844;26.082;2023-03-23T11:32:02;4.45;;;4.05;;
9334;SDS011;4706;41.844;26.082;2023-03-23T11:43:07;5.68;;;5.07;;
9334;SDS011;4706;41.844;26.082;2023-03-23T11:45:39;16.83;;;15.20;;
9334;SDS011;4706;41.844;26.082;2023-03-23T11:51:01;10.95;;;9.30;;
9334;SDS011;4706;41.844;26.082;2023-03-23T11:58:33;9.43;;;5.63;;
9334;SDS011;4706;41.844;26.082;2023-03-23T12:01:06;5.47;;;5.00;;
9334;SDS011;4706;41.844;26.082;2023-03-23T12:06:32;5.90;;;5.32;;
9334;SDS011;4706;41.844;26.082;2023-03-23T12:09:21;5.20;;;4.80;;
9334;SDS011;4706;41.844;26.082;2023-03-23T12:20:29;7.07;;;6.43;;
9334;SDS011;4706;41.844;26.082;2023-03-23T12:25:43;7.07;;;5.22;;
9334;SDS011;4706;41.844;26.082;2023-03-23T12:31:31;5.32;;;4.93;;
9334;SDS011;4706;41.844;26.082;2023-03-23T12:34:06;4.85;;;4.25;;
9334;SDS011;4706;41.844;26.082;2023-03-23T12:36:47;4.22;;;3.92;;
9334;SDS011;4706;41.844;26.082;2023-03-23T12:44:50;5.07;;;4.57;;
9334;SDS011;4706;41.844;26.082;2023-03-23T12:53:05;5.28;;;4.60;;
9334;SDS011;4706;41.844;26.082;2023-03-23T12:58:30;5.85;;;5.35;;
9334;SDS011;4706;41.844;26.082;2023-03-23T13:01:02;5.60;;;5.07;;
9334;SDS011;4706;41.844;26.082;2023-03-23T13:06:23;6.57;;;5.93;;
9334;SDS011;4706;41.844;26.082;2023-03-23T13:25:54;5.63;;;5.13;;
9334;SDS011;4706;41.844;26.082;2023-03-23T13:28:26;6.00;;;5.47;;
9334;SDS011;4706;41.844;26.082;2023-03-23T13:30:54;5.78;;;5.28;;
9334;SDS011;4706;41.844;26.082;2023-03-23T13:33:21;5.45;;;4.93;;
9334;SDS011;4706;41.844;26.082;2023-03-23T13:35:48;6.15;;;5.55;;
9334;SDS011;4706;41.844;26.082;2023-03-23T13:38:26;5.70;;;5.20;;
9334;SDS011;4706;41.844;26.082;2023-03-23T13:40:56;5.00;;;4.60;;
9334;SDS011;4706;41.844;26.082;2023-03-23T13:43:32;4.38;;;4.07;;
9334;SDS011;4706;41.844;26.082;2023-03-23T13:46:33;4.57;;;4.20;;
9334;SDS011;4706;41.844;26.082;2023-03-23T13:49:15;5.05;;;4.60;;
9334;SDS011;4706;41.844;26.082;2023-03-23T13:59:32;13.10;;;6.35;;
9334;SDS011;4706;41.844;26.082;2023-03-23T14:04:56;8.18;;;5.57;;
9334;SDS011;4706;41.844;26.082;2023-03-23T14:07:49;7.22;;;6.53;;
9334;SDS011;4706;41.844;26.082;2023-03-23T14:10:19;5.43;;;5.03;;
9334;SDS011;4706;41.844;26.082;2023-03-23T14:12:45;5.53;;;5.03;;
9334;SDS011;4706;41.844;26.082;2023-03-23T14:15:12;5.22;;;4.82;;
9334;SDS011;4706;41.844;26.082;2023-03-23T14:17:43;7.50;;;4.82;;
9334;SDS011;4706;41.844;26.082;2023-03-23T14:20:17;4.32;;;3.92;;
9334;SDS011;4706;41.844;26.082;2023-03-23T14:22:52;15.20;;;5.00;;
9334;SDS011;4706;41.844;26.082;2023-03-23T14:25:19;5.72;;;4.97;;
9334;SDS011;4706;41.844;26.082;2023-03-23T14:27:50;6.78;;;6.18;;
9334;SDS011;4706;41.844;26.082;2023-03-23T14:30:26;9.35;;;6.00;;
9334;SDS011;4706;41.844;26.082;2023-03-23T14:33:05;6.38;;;5.78;;
9334;SDS011;4706;41.844;26.082;2023-03-23T14:35:34;7.90;;;6.88;;
9334;SDS011;4706;41.844;26.082;2023-03-23T14:38:02;7.85;;;7.15;;
9334;SDS011;4706;41.844;26.082;2023-03-23T14:40:29;8.35;;;7.53;;
9334;SDS011;4706;41.844;26.082;2023-03-23T14:42:56;20.77;;;16.83;;
9334;SDS011;4706;41.844;26.082;2023-03-23T14:45:23;10.43;;;8.35;;
9334;SDS011;4706;41.844;26.082;2023-03-23T14:48:00;6.00;;;5.50;;
9334;SDS011;4706;41.844;26.082;2023-03-23T14:55:59;5.18;;;4.38;;
9334;SDS011;4706;41.844;26.082;2023-03-23T14:58:27;23.67;;;18.48;;
9334;SDS011;4706;41.844;26.082;2023-03-23T15:03:20;8.50;;;7.03;;
9334;SDS011;4706;41.844;26.082;2023-03-23T15:05:48;7.43;;;5.53;;
9334;SDS011;4706;41.844;26.082;2023-03-23T15:08:19;6.28;;;5.68;;
9334;SDS011;4706;41.844;26.082;2023-03-23T15:11:21;8.52;;;7.70;;
9334;SDS011;4706;41.844;26.082;2023-03-23T15:13:56;6.95;;;6.10;;
9334;SDS011;4706;41.844;26.082;2023-03-23T15:16:27;6.30;;;5.78;;
9334;SDS011;4706;41.844;26.082;2023-03-23T15:18:56;5.82;;;5.32;;
9334;SDS011;4706;41.844;26.082;2023-03-23T15:23:56;5.80;;;5.30;;
9334;SDS011;4706;41.844;26.082;2023-03-23T15:31:44;11.50;;;9.45;;
9334;SDS011;4706;41.844;26.082;2023-03-23T15:37:03;21.08;;;17.13;;
9334;SDS011;4706;41.844;26.082;2023-03-23T15:39:31;15.77;;;14.07;;
9334;SDS011;4706;41.844;26.082;2023-03-23T15:41:58;13.85;;;12.45;;
9334;SDS011;4706;41.844;26.082;2023-03-23T15:44:30;10.75;;;9.68;;
9334;SDS011;4706;41.844;26.082;2023-03-23T15:47:02;10.10;;;9.20;;
9334;SDS011;4706;41.844;26.082;2023-03-23T15:49:42;11.40;;;10.27;;
9334;SDS011;4706;41.844;26.082;2023-03-23T15:52:10;10.32;;;9.20;;
9334;SDS011;4706;41.844;26.082;2023-03-23T15:54:36;12.35;;;11.15;;
9334;SDS011;4706;41.844;26.082;2023-03-23T15:57:03;12.50;;;11.27;;
9334;SDS011;4706;41.844;26.082;2023-03-23T15:59:29;11.25;;;10.20;;
9334;SDS011;4706;41.844;26.082;2023-03-23T16:01:54;10.25;;;9.25;;
9334;SDS011;4706;41.844;26.082;2023-03-23T16:04:21;7.43;;;6.82;;
9334;SDS011;4706;41.844;26.082;2023-03-23T16:06:46;13.95;;;7.78;;
9334;SDS011;4706;41.844;26.082;2023-03-23T16:09:15;17.98;;;12.00;;
9334;SDS011;4706;41.844;26.082;2023-03-23T16:11:42;28.17;;;23.02;;
9334;SDS011;4706;41.844;26.082;2023-03-23T16:14:08;39.72;;;28.95;;
9334;SDS011;4706;41.844;26.082;2023-03-23T16:16:38;23.30;;;20.90;;
9334;SDS011;4706;41.844;26.082;2023-03-23T16:19:07;22.88;;;19.65;;
9334;SDS011;4706;41.844;26.082;2023-03-23T16:21:35;14.80;;;12.57;;
9334;SDS011;4706;41.844;26.082;2023-03-23T16:24:00;15.05;;;13.55;;
9334;SDS011;4706;41.844;26.082;2023-03-23T16:26:26;18.55;;;16.60;;
9334;SDS011;4706;41.844;26.082;2023-03-23T16:28:51;23.48;;;20.98;;
9334;SDS011;4706;41.844;26.082;2023-03-23T16:31:17;48.53;;;37.58;;
9334;SDS011;4706;41.844;26.082;2023-03-23T16:33:42;31.20;;;28.02;;
9334;SDS011;4706;41.844;26.082;2023-03-23T16:36:10;31.15;;;27.83;;
9334;SDS011;4706;41.844;26.082;2023-03-23T16:38:36;26.33;;;23.65;;
9334;SDS011;4706;41.844;26.082;2023-03-23T16:41:02;36.78;;;28.10;;
9334;SDS011;4706;41.844;26.082;2023-03-23T16:43:27;28.52;;;25.55;;
9334;SDS011;4706;41.844;26.082;2023-03-23T16:45:54;63.60;;;48.55;;
9334;SDS011;4706;41.844;26.082;2023-03-23T16:48:20;41.28;;;36.92;;
9334;SDS011;4706;41.844;26.082;2023-03-23T16:50:45;45.20;;;40.47;;
9334;SDS011;4706;41.844;26.082;2023-03-23T16:53:11;49.22;;;44.03;;
9334;SDS011;4706;41.844;26.082;2023-03-23T16:55:37;22.02;;;19.92;;
9334;SDS011;4706;41.844;26.082;2023-03-23T16:58:03;22.95;;;20.58;;
9334;SDS011;4706;41.844;26.082;2023-03-23T17:00:30;29.52;;;25.85;;
9334;SDS011;4706;41.844;26.082;2023-03-23T17:02:56;31.45;;;28.13;;
9334;SDS011;4706;41.844;26.082;2023-03-23T17:05:27;16.50;;;14.90;;
9334;SDS011;4706;41.844;26.082;2023-03-23T17:07:53;32.00;;;27.80;;
9334;SDS011;4706;41.844;26.082;2023-03-23T17:10:20;116.00;;;81.57;;
9334;SDS011;4706;41.844;26.082;2023-03-23T17:12:46;146.27;;;102.32;;
9334;SDS011;4706;41.844;26.082;2023-03-23T17:15:12;22.77;;;20.33;;
9334;SDS011;4706;41.844;26.082;2023-03-23T17:17:38;34.10;;;26.48;;
9334;SDS011;4706;41.844;26.082;2023-03-23T17:20:04;36.17;;;28.83;;
9334;SDS011;4706;41.844;26.082;2023-03-23T17:22:31;42.17;;;37.58;;